Meservey, Iowa
Current Conditions -  °F | °C
As of 6:53 AM on Monday 24 Nov 2014 (Local Time) from KMCW Reporting Station
Overcast Overcast  
Wind Chill:   Ceiling: 1000
Heat Index: 22°   Visibility: 10mi
Dew Point: 19°   Wind: 31mph
Humidity: 89%   Direction: 300°WNW
Pressure: 29.39"   Gusts: 40mph
Location:  42.91°N, 93.48°W
Report Text: KMCW 241253Z AUTO 30027G35KT 10SM OVC010 M06/M07 A2939 RMK AO2 PK WND 30038/1155 SLP959 I1000 T10561072 $
Loading
Personal Weather Stations






























Interactive Weather Map New forecast layout! Learn more

10-Day Weather Forecast

Advertisements
Track Severe Weather on mobile